sensor_id;sensor_type;location;lat;lon;timestamp;P1;durP1;ratioP1;P2;durP2;ratioP2
48875;SDS011;34689;51.644;5.618;2022-09-06T00:02:13;1.38;;;0.57;;
48875;SDS011;34689;51.644;5.618;2022-09-06T00:04:39;0.80;;;0.70;;
48875;SDS011;34689;51.644;5.618;2022-09-06T00:07:04;1.02;;;0.80;;
48875;SDS011;34689;51.644;5.618;2022-09-06T00:09:30;1.08;;;0.80;;
48875;SDS011;34689;51.644;5.618;2022-09-06T00:11:55;0.77;;;0.65;;
48875;SDS011;34689;51.644;5.618;2022-09-06T00:14:21;0.95;;;0.80;;
48875;SDS011;34689;51.644;5.618;2022-09-06T00:16:47;0.80;;;0.70;;
48875;SDS011;34689;51.644;5.618;2022-09-06T00:19:12;0.75;;;0.68;;
48875;SDS011;34689;51.644;5.618;2022-09-06T00:21:38;0.77;;;0.55;;
48875;SDS011;34689;51.644;5.618;2022-09-06T00:24:04;2.15;;;0.98;;
48875;SDS011;34689;51.644;5.618;2022-09-06T00:26:30;0.98;;;0.90;;
48875;SDS011;34689;51.644;5.618;2022-09-06T00:28:56;1.63;;;1.05;;
48875;SDS011;34689;51.644;5.618;2022-09-06T00:31:23;2.25;;;0.60;;
48875;SDS011;34689;51.644;5.618;2022-09-06T00:33:50;1.30;;;1.00;;
48875;SDS011;34689;51.644;5.618;2022-09-06T00:36:16;1.38;;;0.95;;
48875;SDS011;34689;51.644;5.618;2022-09-06T00:38:43;1.50;;;0.90;;
48875;SDS011;34689;51.644;5.618;2022-09-06T00:41:10;1.13;;;0.88;;
48875;SDS011;34689;51.644;5.618;2022-09-06T00:43:36;1.33;;;1.17;;
48875;SDS011;34689;51.644;5.618;2022-09-06T00:46:04;3.55;;;1.30;;
48875;SDS011;34689;51.644;5.618;2022-09-06T00:48:32;1.52;;;1.20;;
48875;SDS011;34689;51.644;5.618;2022-09-06T00:50:59;1.33;;;0.90;;
48875;SDS011;34689;51.644;5.618;2022-09-06T00:53:28;1.55;;;0.90;;
48875;SDS011;34689;51.644;5.618;2022-09-06T00:55:55;1.25;;;1.02;;
48875;SDS011;34689;51.644;5.618;2022-09-06T00:58:21;1.27;;;1.10;;
48875;SDS011;34689;51.644;5.618;2022-09-06T01:00:47;0.68;;;0.57;;
48875;SDS011;34689;51.644;5.618;2022-09-06T01:03:13;1.17;;;1.00;;
48875;SDS011;34689;51.644;5.618;2022-09-06T01:05:42;1.98;;;1.05;;
48875;SDS011;34689;51.644;5.618;2022-09-06T01:08:14;1.60;;;0.80;;
48875;SDS011;34689;51.644;5.618;2022-09-06T01:11:00;1.85;;;0.88;;
48875;SDS011;34689;51.644;5.618;2022-09-06T01:16:11;0.77;;;0.68;;
48875;SDS011;34689;51.644;5.618;2022-09-06T01:19:26;1.50;;;0.85;;
48875;SDS011;34689;51.644;5.618;2022-09-06T01:24:39;1.33;;;0.98;;
48875;SDS011;34689;51.644;5.618;2022-09-06T01:30:06;0.95;;;0.70;;
48875;SDS011;34689;51.644;5.618;2022-09-06T01:38:19;2.30;;;1.38;;
48875;SDS011;34689;51.644;5.618;2022-09-06T01:40:45;1.67;;;0.95;;
48875;SDS011;34689;51.644;5.618;2022-09-06T01:43:11;2.13;;;1.17;;
48875;SDS011;34689;51.644;5.618;2022-09-06T01:45:49;2.38;;;0.98;;
48875;SDS011;34689;51.644;5.618;2022-09-06T01:54:01;1.08;;;0.98;;
48875;SDS011;34689;51.644;5.618;2022-09-06T02:02:05;1.98;;;1.10;;
48875;SDS011;34689;51.644;5.618;2022-09-06T02:07:24;1.88;;;1.25;;
48875;SDS011;34689;51.644;5.618;2022-09-06T02:09:52;1.10;;;0.80;;
48875;SDS011;34689;51.644;5.618;2022-09-06T02:12:22;1.77;;;1.33;;
48875;SDS011;34689;51.644;5.618;2022-09-06T02:14:54;2.22;;;1.60;;
48875;SDS011;34689;51.644;5.618;2022-09-06T02:17:25;2.22;;;1.27;;
48875;SDS011;34689;51.644;5.618;2022-09-06T02:19:56;2.15;;;0.90;;
48875;SDS011;34689;51.644;5.618;2022-09-06T02:22:30;1.45;;;0.90;;
48875;SDS011;34689;51.644;5.618;2022-09-06T02:25:00;1.08;;;0.90;;
48875;SDS011;34689;51.644;5.618;2022-09-06T02:27:31;1.42;;;1.15;;
48875;SDS011;34689;51.644;5.618;2022-09-06T02:29:57;2.97;;;1.52;;
48875;SDS011;34689;51.644;5.618;2022-09-06T02:32:23;3.72;;;1.48;;
48875;SDS011;34689;51.644;5.618;2022-09-06T02:34:50;2.55;;;1.15;;
48875;SDS011;34689;51.644;5.618;2022-09-06T02:37:19;1.55;;;1.33;;
48875;SDS011;34689;51.644;5.618;2022-09-06T02:39:46;1.20;;;0.90;;
48875;SDS011;34689;51.644;5.618;2022-09-06T02:42:13;2.05;;;1.38;;
48875;SDS011;34689;51.644;5.618;2022-09-06T02:44:41;1.88;;;1.20;;
48875;SDS011;34689;51.644;5.618;2022-09-06T02:47:07;2.30;;;1.02;;
48875;SDS011;34689;51.644;5.618;2022-09-06T02:49:33;2.22;;;1.52;;
48875;SDS011;34689;51.644;5.618;2022-09-06T02:51:59;2.00;;;1.20;;
48875;SDS011;34689;51.644;5.618;2022-09-06T02:54:24;1.50;;;1.35;;
48875;SDS011;34689;51.644;5.618;2022-09-06T02:56:50;1.60;;;1.40;;
48875;SDS011;34689;51.644;5.618;2022-09-06T02:59:16;3.20;;;1.25;;
48875;SDS011;34689;51.644;5.618;2022-09-06T03:01:42;2.05;;;1.40;;
48875;SDS011;34689;51.644;5.618;2022-09-06T03:04:07;2.28;;;1.25;;
48875;SDS011;34689;51.644;5.618;2022-09-06T03:06:33;2.42;;;1.10;;
48875;SDS011;34689;51.644;5.618;2022-09-06T03:08:59;2.30;;;1.25;;
48875;SDS011;34689;51.644;5.618;2022-09-06T03:11:25;3.60;;;1.30;;
48875;SDS011;34689;51.644;5.618;2022-09-06T03:13:51;2.05;;;1.65;;
48875;SDS011;34689;51.644;5.618;2022-09-06T03:16:17;1.92;;;1.33;;
48875;SDS011;34689;51.644;5.618;2022-09-06T03:18:43;1.70;;;1.30;;
48875;SDS011;34689;51.644;5.618;2022-09-06T03:21:09;2.38;;;1.88;;
48875;SDS011;34689;51.644;5.618;2022-09-06T03:23:35;1.55;;;1.25;;
48875;SDS011;34689;51.644;5.618;2022-09-06T03:26:03;1.58;;;1.27;;
48875;SDS011;34689;51.644;5.618;2022-09-06T03:28:29;1.58;;;1.20;;
48875;SDS011;34689;51.644;5.618;2022-09-06T03:30:55;1.77;;;1.42;;
48875;SDS011;34689;51.644;5.618;2022-09-06T03:33:20;1.80;;;1.23;;
48875;SDS011;34689;51.644;5.618;2022-09-06T03:35:50;3.28;;;1.48;;
48875;SDS011;34689;51.644;5.618;2022-09-06T03:38:18;2.42;;;1.63;;
48875;SDS011;34689;51.644;5.618;2022-09-06T03:40:45;2.05;;;1.63;;
48875;SDS011;34689;51.644;5.618;2022-09-06T03:43:12;3.03;;;1.30;;
48875;SDS011;34689;51.644;5.618;2022-09-06T03:45:38;1.90;;;1.30;;
48875;SDS011;34689;51.644;5.618;2022-09-06T03:48:04;1.75;;;1.20;;
48875;SDS011;34689;51.644;5.618;2022-09-06T03:50:29;1.90;;;1.58;;
48875;SDS011;34689;51.644;5.618;2022-09-06T03:52:55;2.08;;;1.50;;
48875;SDS011;34689;51.644;5.618;2022-09-06T03:55:20;3.50;;;1.80;;
48875;SDS011;34689;51.644;5.618;2022-09-06T03:57:46;2.17;;;1.30;;
48875;SDS011;34689;51.644;5.618;2022-09-06T04:00:12;2.83;;;1.50;;
48875;SDS011;34689;51.644;5.618;2022-09-06T04:02:38;1.83;;;1.52;;
48875;SDS011;34689;51.644;5.618;2022-09-06T04:05:04;1.85;;;1.55;;
48875;SDS011;34689;51.644;5.618;2022-09-06T04:07:30;3.25;;;1.60;;
48875;SDS011;34689;51.644;5.618;2022-09-06T04:09:56;1.80;;;1.33;;
48875;SDS011;34689;51.644;5.618;2022-09-06T04:12:21;1.70;;;1.35;;
48875;SDS011;34689;51.644;5.618;2022-09-06T04:14:47;2.65;;;1.40;;
48875;SDS011;34689;51.644;5.618;2022-09-06T04:17:13;2.33;;;1.77;;
48875;SDS011;34689;51.644;5.618;2022-09-06T04:19:39;3.72;;;1.60;;
48875;SDS011;34689;51.644;5.618;2022-09-06T04:22:04;1.88;;;1.70;;
48875;SDS011;34689;51.644;5.618;2022-09-06T04:24:30;3.85;;;1.77;;
48875;SDS011;34689;51.644;5.618;2022-09-06T04:26:56;2.50;;;1.77;;
48875;SDS011;34689;51.644;5.618;2022-09-06T04:29:21;1.73;;;1.25;;
48875;SDS011;34689;51.644;5.618;2022-09-06T04:31:47;2.30;;;1.45;;
48875;SDS011;34689;51.644;5.618;2022-09-06T04:34:13;1.67;;;1.25;;
48875;SDS011;34689;51.644;5.618;2022-09-06T04:36:40;1.80;;;1.55;;
48875;SDS011;34689;51.644;5.618;2022-09-06T04:39:06;2.80;;;1.90;;
48875;SDS011;34689;51.644;5.618;2022-09-06T04:41:31;2.03;;;1.83;;
48875;SDS011;34689;51.644;5.618;2022-09-06T04:43:57;2.13;;;1.73;;
48875;SDS011;34689;51.644;5.618;2022-09-06T04:46:23;2.38;;;1.63;;
48875;SDS011;34689;51.644;5.618;2022-09-06T04:48:51;2.70;;;1.63;;
48875;SDS011;34689;51.644;5.618;2022-09-06T04:51:18;6.38;;;2.30;;
48875;SDS011;34689;51.644;5.618;2022-09-06T04:53:44;2.45;;;1.73;;
48875;SDS011;34689;51.644;5.618;2022-09-06T04:56:14;2.70;;;1.90;;
48875;SDS011;34689;51.644;5.618;2022-09-06T04:58:42;1.67;;;1.55;;
48875;SDS011;34689;51.644;5.618;2022-09-06T05:01:08;1.75;;;1.52;;
48875;SDS011;34689;51.644;5.618;2022-09-06T05:03:34;2.13;;;1.75;;
48875;SDS011;34689;51.644;5.618;2022-09-06T05:06:04;2.15;;;1.80;;
48875;SDS011;34689;51.644;5.618;2022-09-06T05:08:30;1.50;;;1.40;;
48875;SDS011;34689;51.644;5.618;2022-09-06T05:10:55;2.47;;;2.03;;
48875;SDS011;34689;51.644;5.618;2022-09-06T05:13:21;2.40;;;1.63;;
48875;SDS011;34689;51.644;5.618;2022-09-06T05:15:49;2.30;;;1.75;;
48875;SDS011;34689;51.644;5.618;2022-09-06T05:18:15;3.35;;;1.90;;
48875;SDS011;34689;51.644;5.618;2022-09-06T05:20:41;3.88;;;1.92;;
48875;SDS011;34689;51.644;5.618;2022-09-06T05:23:06;4.72;;;2.22;;
48875;SDS011;34689;51.644;5.618;2022-09-06T05:25:32;3.90;;;2.05;;
48875;SDS011;34689;51.644;5.618;2022-09-06T05:27:58;2.38;;;2.00;;
48875;SDS011;34689;51.644;5.618;2022-09-06T05:30:24;2.92;;;2.08;;
48875;SDS011;34689;51.644;5.618;2022-09-06T05:32:49;2.78;;;1.95;;
48875;SDS011;34689;51.644;5.618;2022-09-06T05:35:15;2.63;;;1.70;;
48875;SDS011;34689;51.644;5.618;2022-09-06T05:37:41;2.78;;;2.20;;
48875;SDS011;34689;51.644;5.618;2022-09-06T05:40:06;2.63;;;2.00;;
48875;SDS011;34689;51.644;5.618;2022-09-06T05:42:32;2.15;;;1.80;;
48875;SDS011;34689;51.644;5.618;2022-09-06T05:44:58;2.30;;;1.88;;
48875;SDS011;34689;51.644;5.618;2022-09-06T05:47:25;4.00;;;2.42;;
48875;SDS011;34689;51.644;5.618;2022-09-06T05:49:52;2.83;;;2.30;;
48875;SDS011;34689;51.644;5.618;2022-09-06T05:52:18;3.10;;;2.22;;
48875;SDS011;34689;51.644;5.618;2022-09-06T05:54:44;2.58;;;1.95;;
48875;SDS011;34689;51.644;5.618;2022-09-06T05:57:09;2.65;;;2.03;;
48875;SDS011;34689;51.644;5.618;2022-09-06T05:59:38;2.63;;;2.03;;
48875;SDS011;34689;51.644;5.618;2022-09-06T06:02:03;3.80;;;2.42;;
48875;SDS011;34689;51.644;5.618;2022-09-06T06:04:30;2.22;;;1.90;;
48875;SDS011;34689;51.644;5.618;2022-09-06T06:06:55;2.63;;;2.20;;
48875;SDS011;34689;51.644;5.618;2022-09-06T06:09:21;4.03;;;2.67;;
48875;SDS011;34689;51.644;5.618;2022-09-06T06:11:47;4.60;;;3.10;;
48875;SDS011;34689;51.644;5.618;2022-09-06T06:14:12;2.80;;;2.20;;
48875;SDS011;34689;51.644;5.618;2022-09-06T06:16:40;3.95;;;2.08;;
48875;SDS011;34689;51.644;5.618;2022-09-06T06:19:09;3.75;;;2.50;;
48875;SDS011;34689;51.644;5.618;2022-09-06T06:21:34;6.82;;;2.70;;
48875;SDS011;34689;51.644;5.618;2022-09-06T06:24:03;3.63;;;2.60;;
48875;SDS011;34689;51.644;5.618;2022-09-06T06:26:30;4.45;;;3.17;;
48875;SDS011;34689;51.644;5.618;2022-09-06T06:28:58;6.13;;;2.58;;
48875;SDS011;34689;51.644;5.618;2022-09-06T06:31:26;3.58;;;2.40;;
48875;SDS011;34689;51.644;5.618;2022-09-06T06:33:52;6.07;;;3.40;;
48875;SDS011;34689;51.644;5.618;2022-09-06T06:36:22;5.72;;;2.90;;
48875;SDS011;34689;51.644;5.618;2022-09-06T06:38:54;4.28;;;2.67;;
48875;SDS011;34689;51.644;5.618;2022-09-06T06:41:22;3.50;;;2.67;;
48875;SDS011;34689;51.644;5.618;2022-09-06T06:43:50;3.22;;;2.60;;
48875;SDS011;34689;51.644;5.618;2022-09-06T06:46:21;3.85;;;2.72;;
48875;SDS011;34689;51.644;5.618;2022-09-06T06:48:48;3.17;;;2.25;;
48875;SDS011;34689;51.644;5.618;2022-09-06T06:51:15;3.72;;;2.47;;
48875;SDS011;34689;51.644;5.618;2022-09-06T06:53:42;3.80;;;2.30;;
48875;SDS011;34689;51.644;5.618;2022-09-06T06:56:16;3.47;;;3.00;;
48875;SDS011;34689;51.644;5.618;2022-09-06T06:58:44;4.50;;;2.85;;
48875;SDS011;34689;51.644;5.618;2022-09-06T07:01:12;2.85;;;2.15;;
48875;SDS011;34689;51.644;5.618;2022-09-06T07:03:38;3.50;;;2.70;;
48875;SDS011;34689;51.644;5.618;2022-09-06T07:06:04;3.40;;;2.72;;
48875;SDS011;34689;51.644;5.618;2022-09-06T07:08:30;3.60;;;2.97;;
48875;SDS011;34689;51.644;5.618;2022-09-06T07:10:57;2.83;;;2.40;;
48875;SDS011;34689;51.644;5.618;2022-09-06T07:13:22;3.00;;;2.63;;
48875;SDS011;34689;51.644;5.618;2022-09-06T07:15:48;4.78;;;2.70;;
48875;SDS011;34689;51.644;5.618;2022-09-06T07:18:14;4.10;;;2.17;;
48875;SDS011;34689;51.644;5.618;2022-09-06T07:20:40;3.95;;;2.25;;
48875;SDS011;34689;51.644;5.618;2022-09-06T07:23:06;3.83;;;2.38;;
48875;SDS011;34689;51.644;5.618;2022-09-06T07:25:32;3.00;;;2.28;;
48875;SDS011;34689;51.644;5.618;2022-09-06T07:27:58;2.88;;;2.38;;
48875;SDS011;34689;51.644;5.618;2022-09-06T07:30:29;2.70;;;2.25;;
48875;SDS011;34689;51.644;5.618;2022-09-06T07:32:55;3.22;;;1.98;;
48875;SDS011;34689;51.644;5.618;2022-09-06T07:35:23;2.38;;;2.13;;
48875;SDS011;34689;51.644;5.618;2022-09-06T07:37:51;4.30;;;2.05;;
48875;SDS011;34689;51.644;5.618;2022-09-06T07:40:21;3.10;;;2.00;;
48875;SDS011;34689;51.644;5.618;2022-09-06T07:42:51;2.30;;;1.60;;
48875;SDS011;34689;51.644;5.618;2022-09-06T07:45:20;1.67;;;1.58;;
48875;SDS011;34689;51.644;5.618;2022-09-06T07:47:51;2.88;;;1.45;;
48875;SDS011;34689;51.644;5.618;2022-09-06T07:50:23;2.50;;;1.83;;
48875;SDS011;34689;51.644;5.618;2022-09-06T07:52:49;3.00;;;2.10;;
48875;SDS011;34689;51.644;5.618;2022-09-06T07:55:15;1.98;;;1.60;;
48875;SDS011;34689;51.644;5.618;2022-09-06T07:57:41;2.58;;;1.50;;
48875;SDS011;34689;51.644;5.618;2022-09-06T08:00:06;3.20;;;1.70;;
48875;SDS011;34689;51.644;5.618;2022-09-06T08:02:34;2.05;;;1.30;;
48875;SDS011;34689;51.644;5.618;2022-09-06T08:04:59;2.50;;;1.73;;
48875;SDS011;34689;51.644;5.618;2022-09-06T08:07:25;2.55;;;2.15;;
48875;SDS011;34689;51.644;5.618;2022-09-06T08:09:51;2.97;;;1.60;;
48875;SDS011;34689;51.644;5.618;2022-09-06T08:12:16;1.98;;;1.40;;
48875;SDS011;34689;51.644;5.618;2022-09-06T08:14:42;1.50;;;1.23;;
48875;SDS011;34689;51.644;5.618;2022-09-06T08:17:08;1.95;;;1.20;;
48875;SDS011;34689;51.644;5.618;2022-09-06T08:19:34;3.17;;;1.60;;
48875;SDS011;34689;51.644;5.618;2022-09-06T08:21:59;1.60;;;1.50;;
48875;SDS011;34689;51.644;5.618;2022-09-06T08:24:25;1.20;;;1.10;;
48875;SDS011;34689;51.644;5.618;2022-09-06T08:26:51;1.73;;;1.10;;
48875;SDS011;34689;51.644;5.618;2022-09-06T08:29:17;1.38;;;1.27;;
48875;SDS011;34689;51.644;5.618;2022-09-06T08:31:44;2.78;;;1.48;;
48875;SDS011;34689;51.644;5.618;2022-09-06T08:34:10;1.92;;;1.10;;
48875;SDS011;34689;51.644;5.618;2022-09-06T08:36:39;1.23;;;0.90;;
48875;SDS011;34689;51.644;5.618;2022-09-06T08:39:06;1.90;;;1.25;;
48875;SDS011;34689;51.644;5.618;2022-09-06T08:44:19;2.55;;;1.35;;
48875;SDS011;34689;51.644;5.618;2022-09-06T08:49:11;1.90;;;1.45;;
48875;SDS011;34689;51.644;5.618;2022-09-06T08:54:50;2.15;;;1.15;;
48875;SDS011;34689;51.644;5.618;2022-09-06T08:56:57;2.10;;;1.10;;
48875;SDS011;34689;51.644;5.618;2022-09-06T08:59:25;5.57;;;0.80;;
48875;SDS011;34689;51.644;5.618;2022-09-06T09:10:05;1.48;;;0.98;;
48875;SDS011;34689;51.644;5.618;2022-09-06T09:15:06;1.27;;;0.90;;
48875;SDS011;34689;51.644;5.618;2022-09-06T09:17:36;1.65;;;1.20;;
48875;SDS011;34689;51.644;5.618;2022-09-06T09:20:02;1.85;;;0.77;;
48875;SDS011;34689;51.644;5.618;2022-09-06T09:22:28;1.38;;;1.10;;
48875;SDS011;34689;51.644;5.618;2022-09-06T09:24:54;1.58;;;1.00;;
48875;SDS011;34689;51.644;5.618;2022-09-06T09:27:24;0.70;;;0.63;;
48875;SDS011;34689;51.644;5.618;2022-09-06T09:32:34;0.95;;;0.65;;
48875;SDS011;34689;51.644;5.618;2022-09-06T09:40:49;0.60;;;0.50;;
48875;SDS011;34689;51.644;5.618;2022-09-06T09:46:07;0.70;;;0.60;;
48875;SDS011;34689;51.644;5.618;2022-09-06T09:48:35;0.73;;;0.70;;
48875;SDS011;34689;51.644;5.618;2022-09-06T09:51:21;3.47;;;0.80;;
48875;SDS011;34689;51.644;5.618;2022-09-06T09:53:51;1.52;;;0.70;;
48875;SDS011;34689;51.644;5.618;2022-09-06T09:56:43;3.03;;;0.70;;
48875;SDS011;34689;51.644;5.618;2022-09-06T09:59:25;1.95;;;0.70;;
48875;SDS011;34689;51.644;5.618;2022-09-06T10:01:59;2.58;;;1.25;;
48875;SDS011;34689;51.644;5.618;2022-09-06T10:07:13;1.48;;;0.68;;
48875;SDS011;34689;51.644;5.618;2022-09-06T10:09:44;1.52;;;0.80;;
48875;SDS011;34689;51.644;5.618;2022-09-06T10:12:14;1.25;;;0.60;;
48875;SDS011;34689;51.644;5.618;2022-09-06T10:14:46;2.00;;;0.90;;
48875;SDS011;34689;51.644;5.618;2022-09-06T10:17:47;0.40;;;0.40;;
48875;SDS011;34689;51.644;5.618;2022-09-06T10:20:16;1.65;;;0.70;;
48875;SDS011;34689;51.644;5.618;2022-09-06T10:22:50;4.47;;;1.15;;
48875;SDS011;34689;51.644;5.618;2022-09-06T10:25:44;2.05;;;1.05;;
48875;SDS011;34689;51.644;5.618;2022-09-06T10:28:30;1.65;;;0.40;;
48875;SDS011;34689;51.644;5.618;2022-09-06T10:31:11;1.23;;;0.70;;
48875;SDS011;34689;51.644;5.618;2022-09-06T10:33:57;1.33;;;0.60;;
48875;SDS011;34689;51.644;5.618;2022-09-06T10:39:04;0.80;;;0.65;;
48875;SDS011;34689;51.644;5.618;2022-09-06T10:44:26;1.83;;;0.60;;
48875;SDS011;34689;51.644;5.618;2022-09-06T10:47:23;2.72;;;0.82;;
48875;SDS011;34689;51.644;5.618;2022-09-06T10:49:56;2.50;;;0.55;;
48875;SDS011;34689;51.644;5.618;2022-09-06T10:52:26;0.68;;;0.63;;
48875;SDS011;34689;51.644;5.618;2022-09-06T10:55:04;0.70;;;0.65;;
48875;SDS011;34689;51.644;5.618;2022-09-06T10:57:39;1.23;;;0.77;;
48875;SDS011;34689;51.644;5.618;2022-09-06T11:00:09;2.30;;;0.82;;
48875;SDS011;34689;51.644;5.618;2022-09-06T11:05:15;4.50;;;0.65;;
48875;SDS011;34689;51.644;5.618;2022-09-06T11:07:49;0.85;;;0.68;;
48875;SDS011;34689;51.644;5.618;2022-09-06T11:10:28;3.45;;;1.02;;
48875;SDS011;34689;51.644;5.618;2022-09-06T11:13:03;1.60;;;1.00;;
48875;SDS011;34689;51.644;5.618;2022-09-06T11:29:34;1.23;;;0.57;;
48875;SDS011;34689;51.644;5.618;2022-09-06T11:31:55;1.67;;;0.77;;
48875;SDS011;34689;51.644;5.618;2022-09-06T11:34:29;2.00;;;0.60;;
48875;SDS011;34689;51.644;5.618;2022-09-06T11:36:58;1.23;;;0.82;;
48875;SDS011;34689;51.644;5.618;2022-09-06T11:39:38;2.30;;;0.70;;
48875;SDS011;34689;51.644;5.618;2022-09-06T11:42:37;1.98;;;1.10;;
48875;SDS011;34689;51.644;5.618;2022-09-06T11:52:48;1.42;;;0.65;;
48875;SDS011;34689;51.644;5.618;2022-09-06T11:55:17;1.10;;;0.88;;
48875;SDS011;34689;51.644;5.618;2022-09-06T11:57:44;0.82;;;0.77;;
48875;SDS011;34689;51.644;5.618;2022-09-06T12:00:18;1.38;;;0.77;;
48875;SDS011;34689;51.644;5.618;2022-09-06T12:02:48;1.80;;;0.90;;
48875;SDS011;34689;51.644;5.618;2022-09-06T12:05:24;2.72;;;1.40;;
48875;SDS011;34689;51.644;5.618;2022-09-06T12:10:43;0.57;;;0.52;;
48875;SDS011;34689;51.644;5.618;2022-09-06T12:15:58;4.53;;;0.70;;
48875;SDS011;34689;51.644;5.618;2022-09-06T12:29:34;1.35;;;0.88;;
48875;SDS011;34689;51.644;5.618;2022-09-06T12:32:00;1.67;;;0.73;;
48875;SDS011;34689;51.644;5.618;2022-09-06T12:34:27;2.45;;;0.70;;
48875;SDS011;34689;51.644;5.618;2022-09-06T12:39:20;1.52;;;1.15;;
48875;SDS011;34689;51.644;5.618;2022-09-06T12:41:51;1.02;;;0.93;;
48875;SDS011;34689;51.644;5.618;2022-09-06T12:44:23;2.08;;;1.65;;
48875;SDS011;34689;51.644;5.618;2022-09-06T12:47:09;1.13;;;0.90;;
48875;SDS011;34689;51.644;5.618;2022-09-06T12:49:38;1.30;;;0.90;;
48875;SDS011;34689;51.644;5.618;2022-09-06T12:52:14;0.90;;;0.60;;
48875;SDS011;34689;51.644;5.618;2022-09-06T12:54:47;1.60;;;0.70;;
48875;SDS011;34689;51.644;5.618;2022-09-06T12:57:21;0.93;;;0.63;;
48875;SDS011;34689;51.644;5.618;2022-09-06T13:02:17;2.28;;;0.93;;
48875;SDS011;34689;51.644;5.618;2022-09-06T13:04:52;1.15;;;0.80;;
48875;SDS011;34689;51.644;5.618;2022-09-06T13:07:29;1.85;;;1.10;;
48875;SDS011;34689;51.644;5.618;2022-09-06T13:09:58;2.13;;;0.75;;
48875;SDS011;34689;51.644;5.618;2022-09-06T13:15:03;1.05;;;0.40;;
48875;SDS011;34689;51.644;5.618;2022-09-06T13:17:36;0.60;;;0.55;;
48875;SDS011;34689;51.644;5.618;2022-09-06T13:20:09;0.65;;;0.50;;
48875;SDS011;34689;51.644;5.618;2022-09-06T13:22:48;0.93;;;0.55;;
48875;SDS011;34689;51.644;5.618;2022-09-06T13:27:44;0.93;;;0.50;;
48875;SDS011;34689;51.644;5.618;2022-09-06T13:32:54;2.33;;;0.73;;
48875;SDS011;34689;51.644;5.618;2022-09-06T13:35:22;0.77;;;0.77;;
48875;SDS011;34689;51.644;5.618;2022-09-06T13:37:49;2.03;;;0.80;;
48875;SDS011;34689;51.644;5.618;2022-09-06T13:43:00;0.85;;;0.60;;
48875;SDS011;34689;51.644;5.618;2022-09-06T13:45:27;1.02;;;0.80;;
48875;SDS011;34689;51.644;5.618;2022-09-06T13:47:57;2.35;;;1.00;;
48875;SDS011;34689;51.644;5.618;2022-09-06T13:50:23;1.20;;;0.52;;
48875;SDS011;34689;51.644;5.618;2022-09-06T13:52:50;1.77;;;0.82;;
48875;SDS011;34689;51.644;5.618;2022-09-06T13:55:16;1.40;;;0.80;;
48875;SDS011;34689;51.644;5.618;2022-09-06T13:57:44;0.77;;;0.57;;
48875;SDS011;34689;51.644;5.618;2022-09-06T14:00:10;3.45;;;0.77;;
48875;SDS011;34689;51.644;5.618;2022-09-06T14:02:38;2.55;;;1.50;;
48875;SDS011;34689;51.644;5.618;2022-09-06T14:05:05;1.13;;;1.02;;
48875;SDS011;34689;51.644;5.618;2022-09-06T14:07:31;1.27;;;0.73;;
48875;SDS011;34689;51.644;5.618;2022-09-06T14:09:57;0.70;;;0.60;;
48875;SDS011;34689;51.644;5.618;2022-09-06T14:12:24;0.90;;;0.60;;
48875;SDS011;34689;51.644;5.618;2022-09-06T14:14:51;0.75;;;0.73;;
48875;SDS011;34689;51.644;5.618;2022-09-06T14:17:17;0.75;;;0.65;;
48875;SDS011;34689;51.644;5.618;2022-09-06T14:19:43;3.20;;;0.77;;
48875;SDS011;34689;51.644;5.618;2022-09-06T14:22:10;0.60;;;0.60;;
48875;SDS011;34689;51.644;5.618;2022-09-06T14:24:36;1.70;;;0.63;;
48875;SDS011;34689;51.644;5.618;2022-09-06T14:27:02;0.98;;;0.70;;
48875;SDS011;34689;51.644;5.618;2022-09-06T14:29:29;1.38;;;0.73;;
48875;SDS011;34689;51.644;5.618;2022-09-06T14:31:55;1.00;;;0.82;;
48875;SDS011;34689;51.644;5.618;2022-09-06T14:34:21;1.90;;;0.50;;
48875;SDS011;34689;51.644;5.618;2022-09-06T14:36:46;2.75;;;0.93;;
48875;SDS011;34689;51.644;5.618;2022-09-06T14:39:12;0.75;;;0.73;;
48875;SDS011;34689;51.644;5.618;2022-09-06T14:41:38;1.08;;;0.80;;
48875;SDS011;34689;51.644;5.618;2022-09-06T14:44:03;1.38;;;0.52;;
48875;SDS011;34689;51.644;5.618;2022-09-06T14:46:29;1.67;;;0.88;;
48875;SDS011;34689;51.644;5.618;2022-09-06T14:48:56;1.58;;;0.70;;
48875;SDS011;34689;51.644;5.618;2022-09-06T14:51:22;1.30;;;1.00;;
48875;SDS011;34689;51.644;5.618;2022-09-06T14:53:49;1.75;;;0.80;;
48875;SDS011;34689;51.644;5.618;2022-09-06T14:56:16;4.18;;;1.30;;
48875;SDS011;34689;51.644;5.618;2022-09-06T14:58:43;1.25;;;0.77;;
48875;SDS011;34689;51.644;5.618;2022-09-06T15:01:14;1.30;;;0.82;;
48875;SDS011;34689;51.644;5.618;2022-09-06T15:03:42;0.77;;;0.77;;
48875;SDS011;34689;51.644;5.618;2022-09-06T15:06:13;1.05;;;0.95;;
48875;SDS011;34689;51.644;5.618;2022-09-06T15:08:39;0.95;;;0.80;;
48875;SDS011;34689;51.644;5.618;2022-09-06T15:11:05;0.75;;;0.70;;
48875;SDS011;34689;51.644;5.618;2022-09-06T15:13:35;1.05;;;0.70;;
48875;SDS011;34689;51.644;5.618;2022-09-06T15:16:03;0.52;;;0.52;;
48875;SDS011;34689;51.644;5.618;2022-09-06T15:18:29;1.15;;;0.88;;
48875;SDS011;34689;51.644;5.618;2022-09-06T15:20:55;2.30;;;0.70;;
48875;SDS011;34689;51.644;5.618;2022-09-06T15:23:21;0.68;;;0.50;;
48875;SDS011;34689;51.644;5.618;2022-09-06T15:25:50;1.80;;;0.60;;
48875;SDS011;34689;51.644;5.618;2022-09-06T15:28:17;0.55;;;0.55;;
48875;SDS011;34689;51.644;5.618;2022-09-06T15:30:44;1.70;;;0.75;;
48875;SDS011;34689;51.644;5.618;2022-09-06T15:33:11;1.75;;;1.20;;
48875;SDS011;34689;51.644;5.618;2022-09-06T15:35:39;0.95;;;0.82;;
48875;SDS011;34689;51.644;5.618;2022-09-06T15:38:05;2.35;;;0.80;;
48875;SDS011;34689;51.644;5.618;2022-09-06T15:40:31;1.13;;;0.55;;
48875;SDS011;34689;51.644;5.618;2022-09-06T15:42:57;2.30;;;0.88;;
48875;SDS011;34689;51.644;5.618;2022-09-06T15:45:22;1.70;;;0.82;;
48875;SDS011;34689;51.644;5.618;2022-09-06T15:47:48;1.65;;;0.90;;
48875;SDS011;34689;51.644;5.618;2022-09-06T15:50:14;1.13;;;0.50;;
48875;SDS011;34689;51.644;5.618;2022-09-06T15:52:39;1.25;;;0.60;;
48875;SDS011;34689;51.644;5.618;2022-09-06T15:55:05;1.48;;;0.55;;
48875;SDS011;34689;51.644;5.618;2022-09-06T15:57:50;1.13;;;0.63;;
48875;SDS011;34689;51.644;5.618;2022-09-06T16:00:15;1.08;;;0.70;;
48875;SDS011;34689;51.644;5.618;2022-09-06T16:02:45;0.50;;;0.50;;
48875;SDS011;34689;51.644;5.618;2022-09-06T16:05:11;1.48;;;0.82;;
48875;SDS011;34689;51.644;5.618;2022-09-06T16:07:37;0.30;;;0.30;;
48875;SDS011;34689;51.644;5.618;2022-09-06T16:10:07;1.95;;;0.50;;
48875;SDS011;34689;51.644;5.618;2022-09-06T16:12:35;0.60;;;0.40;;
48875;SDS011;34689;51.644;5.618;2022-09-06T16:15:03;1.60;;;0.60;;
48875;SDS011;34689;51.644;5.618;2022-09-06T16:17:30;0.60;;;0.40;;
48875;SDS011;34689;51.644;5.618;2022-09-06T16:19:56;0.85;;;0.50;;
48875;SDS011;34689;51.644;5.618;2022-09-06T16:22:23;0.38;;;0.38;;
48875;SDS011;34689;51.644;5.618;2022-09-06T16:24:50;0.43;;;0.40;;
48875;SDS011;34689;51.644;5.618;2022-09-06T16:27:16;0.40;;;0.40;;
48875;SDS011;34689;51.644;5.618;2022-09-06T16:29:41;0.43;;;0.40;;
48875;SDS011;34689;51.644;5.618;2022-09-06T16:32:09;0.98;;;0.60;;
48875;SDS011;34689;51.644;5.618;2022-09-06T16:34:34;0.30;;;0.22;;
48875;SDS011;34689;51.644;5.618;2022-09-06T16:37:02;1.10;;;0.70;;
48875;SDS011;34689;51.644;5.618;2022-09-06T16:39:32;0.40;;;0.30;;
48875;SDS011;34689;51.644;5.618;2022-09-06T16:42:01;0.95;;;0.52;;
48875;SDS011;34689;51.644;5.618;2022-09-06T16:44:26;0.60;;;0.50;;
48875;SDS011;34689;51.644;5.618;2022-09-06T16:46:53;0.73;;;0.45;;
48875;SDS011;34689;51.644;5.618;2022-09-06T16:49:21;2.17;;;0.47;;
48875;SDS011;34689;51.644;5.618;2022-09-06T16:51:47;0.30;;;0.30;;
48875;SDS011;34689;51.644;5.618;2022-09-06T16:54:14;1.00;;;0.30;;
48875;SDS011;34689;51.644;5.618;2022-09-06T16:56:40;0.20;;;0.20;;
48875;SDS011;34689;51.644;5.618;2022-09-06T16:59:07;0.50;;;0.40;;